Time;durP1;ratioP1;P1;durP2;ratioP2;P2;SDS_P1;SDS_P2;PMS_P1;PMS_P2;Temp;Humidity;BMP_temperature;BMP_pressure;BME280_temperature;BME280_humidity;BME280_pressure;Samples;Min_cycle;Max_cycle;Signal;HPM_P1;HPM_P2
2022/07/07 00:02:16;;;;;;;9.32;1.90;;;;;;;13.25;100.00;99353.06;5028903;28;20025;-69
2022/07/07 00:04:41;;;;;;;9.05;1.90;;;;;;;13.34;100.00;99346.41;5031596;28;20489;-68
2022/07/07 00:07:06;;;;;;;4.15;1.58;;;;;;;13.45;100.00;99349.56;5031543;28;20036;-70
2022/07/07 00:09:31;;;;;;;6.15;1.95;;;;;;;13.38;100.00;99342.22;5036378;28;20393;-69
2022/07/07 00:11:58;;;;;;;4.25;1.65;;;;;;;13.44;100.00;99350.59;5028295;28;20040;-69
2022/07/07 00:14:23;;;;;;;3.28;2.08;;;;;;;13.32;100.00;99331.34;5030964;28;20029;-70
2022/07/07 00:16:49;;;;;;;3.35;2.17;;;;;;;13.41;100.00;99349.13;5036216;28;20099;-70
2022/07/07 00:19:14;;;;;;;4.43;2.10;;;;;;;13.41;100.00;99338.25;5032595;28;20021;-72
2022/07/07 00:21:39;;;;;;;7.60;1.92;;;;;;;13.47;100.00;99333.88;5033829;28;20029;-70
2022/07/07 00:24:05;;;;;;;5.35;1.88;;;;;;;13.38;100.00;99336.78;5031313;28;20029;-70
2022/07/07 00:26:31;;;;;;;3.42;1.80;;;;;;;13.43;100.00;99327.19;5027149;28;20572;-69
2022/07/07 00:28:57;;;;;;;3.72;2.10;;;;;;;13.45;100.00;99335.97;5030297;28;20067;-69
2022/07/07 00:31:22;;;;;;;3.95;1.90;;;;;;;13.39;100.00;99315.91;5021625;28;20033;-69
2022/07/07 00:33:48;;;;;;;4.50;2.20;;;;;;;13.45;100.00;99333.25;5030321;28;20043;-69
2022/07/07 00:36:13;;;;;;;5.75;2.28;;;;;;;13.51;100.00;99324.25;5030103;28;20037;-70
2022/07/07 00:38:38;;;;;;;5.85;2.03;;;;;;;13.31;100.00;99308.78;5029750;28;20021;-69
2022/07/07 00:41:04;;;;;;;2.97;2.10;;;;;;;13.35;100.00;99320.91;5029985;28;20029;-69
2022/07/07 00:43:37;;;;;;;4.32;2.20;;;;;;;13.43;100.00;99324.47;5015450;28;20037;-68
2022/07/07 00:46:03;;;;;;;5.90;2.35;;;;;;;13.45;100.00;99325.94;5026092;28;20115;-69
2022/07/07 00:48:31;;;;;;;3.08;2.03;;;;;;;13.46;100.00;99327.59;5029222;28;20463;-69
2022/07/07 00:50:56;;;;;;;2.55;1.92;;;;;;;13.38;100.00;99319.66;5031557;28;20060;-68
2022/07/07 00:53:21;;;;;;;4.63;1.83;;;;;;;13.45;100.00;99325.94;5030765;28;20073;-68
2022/07/07 00:55:47;;;;;;;4.07;2.08;;;;;;;13.46;100.00;99326.75;5010892;28;20461;-69
2022/07/07 00:58:12;;;;;;;2.35;2.00;;;;;;;13.44;100.00;99323.41;5031580;28;20025;-69
2022/07/07 01:00:37;;;;;;;2.72;2.00;;;;;;;13.38;100.00;99315.03;5027703;28;20021;-68
2022/07/07 01:03:03;;;;;;;6.55;2.50;;;;;;;13.48;100.00;99308.38;5035157;28;20487;-69
2022/07/07 01:05:30;;;;;;;6.70;2.88;;;;;;;13.61;100.00;99305.63;5022032;28;20647;-69
2022/07/07 01:07:56;;;;;;;7.15;2.90;;;;;;;13.42;100.00;99303.78;5029650;28;20030;-69
2022/07/07 01:10:22;;;;;;;5.80;2.42;;;;;;;13.49;100.00;99301.88;5029742;28;20026;-69
2022/07/07 01:12:47;;;;;;;12.25;2.45;;;;;;;13.64;99.70;99307.94;5027119;28;20560;-69
2022/07/07 01:15:13;;;;;;;4.00;2.30;;;;;;;13.43;100.00;99295.41;5033048;28;20059;-71
2022/07/07 01:17:39;;;;;;;4.43;2.08;;;;;;;13.50;100.00;99306.28;5034199;28;20382;-69
2022/07/07 01:20:07;;;;;;;3.58;2.00;;;;;;;13.43;100.00;99289.13;5036200;28;20025;-69
2022/07/07 01:22:38;;;;;;;4.70;2.17;;;;;;;13.49;100.00;99282.84;5029852;28;20025;-69
2022/07/07 01:25:05;;;;;;;3.20;2.28;;;;;;;13.61;100.00;99300.19;5030620;28;20479;-69
2022/07/07 01:27:31;;;;;;;6.28;2.10;;;;;;;13.62;100.00;99296.41;5034545;28;20029;-70
2022/07/07 01:29:57;;;;;;;2.22;1.83;;;;;;;13.65;100.00;99290.59;5017904;28;20402;-69
2022/07/07 01:32:23;;;;;;;3.92;2.13;;;;;;;13.66;100.00;99285.97;5028825;28;20029;-69
2022/07/07 01:34:49;;;;;;;3.00;1.95;;;;;;;13.63;100.00;99292.66;5033975;28;20126;-70
2022/07/07 01:37:15;;;;;;;5.03;2.33;;;;;;;13.57;100.00;99288.06;5033707;28;20538;-69
2022/07/07 01:39:42;;;;;;;4.35;2.20;;;;;;;13.64;100.00;99282.63;5028357;28;20167;-70
2022/07/07 01:42:08;;;;;;;4.55;2.15;;;;;;;13.58;100.00;99284.31;5031460;28;20108;-69
2022/07/07 01:44:35;;;;;;;2.95;2.05;;;;;;;13.44;100.00;99269.91;5035010;28;20033;-71
2022/07/07 01:47:01;;;;;;;5.20;2.40;;;;;;;13.46;100.00;99275.13;5031026;28;20045;-69
2022/07/07 01:49:29;;;;;;;10.02;2.25;;;;;;;13.43;100.00;99275.53;5032792;28;20044;-69
2022/07/07 01:51:54;;;;;;;6.90;2.38;;;;;;;13.36;100.00;99257.38;5013882;28;20200;-69
2022/07/07 01:54:19;;;;;;;8.05;2.35;;;;;;;13.45;100.00;99263.41;5029637;28;20558;-73
2022/07/07 01:56:45;;;;;;;8.95;2.20;;;;;;;13.54;100.00;99259.41;5031588;28;20035;-69
2022/07/07 01:59:11;;;;;;;4.00;2.17;;;;;;;13.48;100.00;99240.41;5034156;28;20029;-69
2022/07/07 02:01:36;;;;;;;6.22;2.08;;;;;;;13.61;100.00;99270.28;5039465;28;20056;-69
2022/07/07 02:04:01;;;;;;;3.88;2.03;;;;;;;13.59;100.00;99254.19;5031987;28;20021;-69
2022/07/07 02:06:26;;;;;;;3.22;1.98;;;;;;;13.75;100.00;99266.50;5030634;28;20021;-69
2022/07/07 02:08:52;;;;;;;8.35;2.20;;;;;;;13.70;100.00;99265.44;5031464;28;20026;-71
2022/07/07 02:11:17;;;;;;;4.45;1.70;;;;;;;13.54;100.00;99256.69;5030978;28;20025;-69
2022/07/07 02:13:45;;;;;;;2.60;1.67;;;;;;;13.63;100.00;99273.63;5033001;28;20037;-69
2022/07/07 02:16:12;;;;;;;6.03;2.08;;;;;;;13.71;100.00;99273.41;5030071;28;20017;-70
2022/07/07 02:18:39;;;;;;;4.90;2.15;;;;;;;13.74;100.00;99269.44;5035050;28;21387;-70
2022/07/07 02:21:05;;;;;;;7.03;2.15;;;;;;;13.84;100.00;99258.94;5033383;28;20045;-71
2022/07/07 02:23:32;;;;;;;2.58;1.90;;;;;;;13.80;100.00;99274.84;5031911;28;21605;-69
2022/07/07 02:25:58;;;;;;;2.85;1.88;;;;;;;13.74;100.00;99280.31;5027030;28;20486;-70
2022/07/07 02:28:24;;;;;;;5.68;2.17;;;;;;;13.49;100.00;99247.50;5028744;28;20064;-69
2022/07/07 02:30:50;;;;;;;4.47;1.70;;;;;;;13.64;100.00;99278.03;5031125;28;20060;-70
2022/07/07 02:33:16;;;;;;;4.55;1.88;;;;;;;13.54;100.00;99262.13;5033111;28;20036;-69
2022/07/07 02:35:41;;;;;;;3.67;2.00;;;;;;;13.70;100.00;99274.47;5030576;28;20030;-70
2022/07/07 02:38:07;;;;;;;3.72;2.05;;;;;;;13.74;100.00;99281.13;5032176;28;20474;-70
2022/07/07 02:40:32;;;;;;;2.15;1.92;;;;;;;13.69;100.00;99271.94;5033644;28;20534;-70
2022/07/07 02:42:57;;;;;;;3.55;2.30;;;;;;;13.50;100.00;99255.47;5033086;28;20029;-70
2022/07/07 02:45:23;;;;;;;6.63;2.20;;;;;;;13.64;100.00;99278.03;5032033;28;20025;-70
2022/07/07 02:47:48;;;;;;;4.13;2.10;;;;;;;13.66;100.00;99273.22;5033067;28;20029;-70
2022/07/07 02:50:14;;;;;;;5.10;2.30;;;;;;;13.60;100.00;99257.75;5032868;28;20110;-70
2022/07/07 02:52:39;;;;;;;3.58;2.30;;;;;;;13.63;100.00;99270.09;5029187;28;20510;-70
2022/07/07 02:55:05;;;;;;;3.47;2.25;;;;;;;13.75;100.00;99247.47;5030444;28;20041;-70
2022/07/07 02:57:30;;;;;;;3.88;2.40;;;;;;;13.77;100.00;99261.69;5035187;28;20026;-71
2022/07/07 02:59:56;;;;;;;5.32;2.10;;;;;;;13.75;100.00;99247.47;5034537;28;20140;-71
2022/07/07 03:02:21;;;;;;;4.20;2.38;;;;;;;13.76;100.00;99259.19;5028251;28;20051;-70
2022/07/07 03:04:46;;;;;;;6.82;2.25;;;;;;;13.80;100.00;99263.13;5011285;28;20021;-69
2022/07/07 03:07:12;;;;;;;5.00;2.17;;;;;;;13.80;100.00;99263.13;5031610;28;20026;-70
2022/07/07 03:09:37;;;;;;;4.30;2.28;;;;;;;13.75;100.00;99261.06;5037648;28;20021;-70
2022/07/07 03:12:03;;;;;;;5.40;2.40;;;;;;;13.78;100.00;99259.78;5032881;28;20045;-70
2022/07/07 03:14:28;;;;;;;5.03;1.88;;;;;;;13.78;100.00;99254.34;5019530;28;20033;-70
2022/07/07 03:16:53;;;;;;;6.85;2.53;;;;;;;13.71;100.00;99248.94;5030886;28;20398;-71
2022/07/07 03:19:18;;;;;;;3.35;2.47;;;;;;;13.80;100.00;99238.66;5025674;28;20034;-69
2022/07/07 03:21:44;;;;;;;3.63;2.35;;;;;;;13.72;100.00;99237.00;5031949;28;20029;-70
2022/07/07 03:24:09;;;;;;;4.18;2.72;;;;;;;13.68;100.00;99235.78;5025390;28;20502;-70
2022/07/07 03:26:34;;;;;;;6.20;2.38;;;;;;;13.73;100.00;99232.41;5028745;28;20026;-70
2022/07/07 03:28:59;;;;;;;4.78;2.45;;;;;;;13.69;100.00;99228.44;5028237;28;20080;-69
2022/07/07 03:31:25;;;;;;;6.00;3.15;;;;;;;13.63;100.00;99234.75;5033938;28;20033;-70
2022/07/07 03:33:50;;;;;;;4.05;2.53;;;;;;;13.67;100.00;99225.09;5038253;22;20025;-69
2022/07/07 03:36:16;;;;;;;3.38;2.45;;;;;;;13.55;100.00;99212.16;5004679;28;20570;-72
2022/07/07 03:38:42;;;;;;;5.95;2.40;;;;;;;13.67;100.00;99230.53;5008461;28;20087;-72
2022/07/07 03:41:07;;;;;;;4.53;2.72;;;;;;;13.63;100.00;99211.09;5010733;28;20021;-75
2022/07/07 03:43:32;;;;;;;6.63;2.22;;;;;;;13.53;100.00;99199.84;5005341;28;20026;-76
2022/07/07 03:45:58;;;;;;;4.05;2.40;;;;;;;13.52;100.00;99209.06;5007911;28;20044;-75
2022/07/07 03:48:23;;;;;;;3.90;2.40;;;;;;;13.56;100.00;99202.94;5007011;28;20471;-75
2022/07/07 03:50:48;;;;;;;3.08;2.22;;;;;;;13.61;100.00;99207.75;4994233;28;20026;-76
2022/07/07 03:53:14;;;;;;;5.63;2.50;;;;;;;13.69;100.00;99214.84;5008671;28;20056;-77
2022/07/07 03:55:39;;;;;;;4.13;2.17;;;;;;;13.89;100.00;99223.78;4993397;28;20033;-76
2022/07/07 03:58:04;;;;;;;6.10;2.35;;;;;;;13.94;100.00;99234.03;5008792;28;20479;-75
2022/07/07 04:00:30;;;;;;;3.40;1.90;;;;;;;13.99;100.00;99217.88;5012111;28;20109;-77
2022/07/07 04:02:55;;;;;;;4.93;2.20;;;;;;;14.03;100.00;99217.22;5011063;28;20048;-77
2022/07/07 04:05:20;;;;;;;5.75;2.05;;;;;;;14.14;99.35;99204.84;5010428;28;20095;-77
2022/07/07 04:07:46;;;;;;;7.63;2.40;;;;;;;14.31;100.00;99205.19;5012486;28;20038;-77
2022/07/07 04:10:11;;;;;;;3.17;2.25;;;;;;;14.46;100.00;99238.41;5005731;28;20474;-76
2022/07/07 04:12:37;;;;;;;4.25;2.33;;;;;;;14.29;100.00;99218.16;5011386;28;20040;-76
2022/07/07 04:15:03;;;;;;;4.75;2.63;;;;;;;14.43;100.00;99235.25;5013837;28;20059;-77
2022/07/07 04:17:28;;;;;;;6.80;2.22;;;;;;;14.19;100.00;99212.34;5011991;28;20108;-75
2022/07/07 04:19:54;;;;;;;6.95;2.85;;;;;;;14.14;100.00;99199.38;5009198;28;20041;-75
2022/07/07 04:22:19;;;;;;;5.40;2.78;;;;;;;14.24;100.00;99205.19;5009951;28;20048;-75
2022/07/07 04:24:44;;;;;;;8.23;3.55;;;;;;;14.17;100.00;99214.44;4991962;28;20032;-75
2022/07/07 04:27:10;;;;;;;4.72;2.50;;;;;;;14.35;100.00;99224.63;5010298;28;20037;-73
2022/07/07 04:29:35;;;;;;;7.38;2.22;;;;;;;14.32;100.00;99208.72;5007824;28;20120;-75
2022/07/07 04:32:01;;;;;;;4.20;2.58;;;;;;;14.30;100.00;99187.16;5006579;28;20577;-74
2022/07/07 04:34:26;;;;;;;4.13;2.30;;;;;;;14.64;100.00;99213.16;5006956;28;20410;-72
2022/07/07 04:36:51;;;;;;;6.47;2.83;;;;;;;14.67;100.00;99210.03;5008025;28;20050;-72
2022/07/07 04:39:17;;;;;;;6.53;2.42;;;;;;;14.80;100.00;99214.56;5008665;28;20026;-72
2022/07/07 04:41:42;;;;;;;7.60;2.58;;;;;;;14.75;100.00;99199.91;5010289;28;20022;-72
2022/07/07 04:44:07;;;;;;;4.00;2.17;;;;;;;14.87;100.00;99211.75;5005163;28;20032;-72
2022/07/07 04:46:33;;;;;;;7.90;2.30;;;;;;;14.96;100.00;99207.72;5005107;28;20083;-73
2022/07/07 04:48:58;;;;;;;7.82;2.45;;;;;;;14.80;100.00;99191.91;5003026;28;20487;-72
2022/07/07 04:51:24;;;;;;;4.30;2.22;;;;;;;15.07;100.00;99209.72;5000919;28;20525;-73
2022/07/07 04:53:49;;;;;;;7.55;3.05;;;;;;;15.20;97.37;99206.03;5006100;28;20383;-74
2022/07/07 04:56:15;;;;;;;10.68;2.72;;;;;;;15.28;91.75;99204.94;5007834;28;20468;-73
2022/07/07 04:58:41;;;;;;;4.50;2.28;;;;;;;15.23;88.66;99180.22;5010370;28;20479;-73
2022/07/07 05:01:10;;;;;;;5.03;2.42;;;;;;;15.18;87.53;99183.63;4993522;28;20970;-73
2022/07/07 05:03:35;;;;;;;3.33;2.28;;;;;;;15.25;86.26;99203.47;5006332;28;20851;-72
2022/07/07 05:06:00;;;;;;;4.18;2.13;;;;;;;15.05;93.14;99179.13;5010286;28;20108;-74
2022/07/07 05:08:25;;;;;;;5.10;2.38;;;;;;;15.29;86.84;99203.84;5013378;28;20061;-74
2022/07/07 05:10:51;;;;;;;3.55;2.20;;;;;;;15.37;84.31;99194.56;4994345;28;20029;-74
2022/07/07 05:13:16;;;;;;;3.08;2.05;;;;;;;15.35;83.61;99183.88;4993909;28;20553;-72
2022/07/07 05:15:42;;;;;;;7.78;2.25;;;;;;;15.40;82.02;99192.19;4998133;28;20026;-73
2022/07/07 05:18:07;;;;;;;5.75;2.45;;;;;;;15.59;79.23;99197.66;5012384;28;20021;-73
2022/07/07 05:20:32;;;;;;;6.10;2.22;;;;;;;15.68;79.05;99177.25;5010720;28;20527;-73
2022/07/07 05:22:58;;;;;;;5.53;2.13;;;;;;;15.80;79.18;99207.34;5012824;28;20084;-73
2022/07/07 05:25:23;;;;;;;6.25;2.20;;;;;;;15.92;81.45;99209.06;5021332;28;20029;-74
2022/07/07 05:27:48;;;;;;;6.57;1.70;;;;;;;16.15;76.03;99197.47;5014117;28;20048;-74
2022/07/07 05:30:14;;;;;;;3.85;1.92;;;;;;;16.48;71.41;99206.25;5022305;28;20026;-76
2022/07/07 05:32:39;;;;;;;9.13;2.25;;;;;;;16.67;71.74;99210.63;5014382;28;20034;-75
2022/07/07 05:35:06;;;;;;;4.47;1.70;;;;;;;16.75;67.96;99188.41;5028117;28;20140;-74
2022/07/07 05:37:31;;;;;;;3.30;1.67;;;;;;;17.00;68.71;99201.94;5032630;28;20045;-74
2022/07/07 05:39:56;;;;;;;6.15;2.15;;;;;;;17.10;66.30;99168.53;5031494;28;20013;-74
2022/07/07 05:42:21;;;;;;;5.35;1.80;;;;;;;17.26;65.66;99183.41;5032532;28;20122;-75
2022/07/07 05:44:47;;;;;;;3.10;1.67;;;;;;;17.20;64.63;99179.72;5031690;28;20048;-75
2022/07/07 05:47:12;;;;;;;3.80;1.60;;;;;;;17.15;64.87;99176.03;5028693;28;20034;-74
2022/07/07 05:49:37;;;;;;;4.70;1.90;;;;;;;17.62;62.55;99176.84;5032171;28;20041;-75
2022/07/07 05:52:03;;;;;;;4.15;1.50;;;;;;;17.82;61.74;99175.66;5032160;28;20030;-72
2022/07/07 05:54:28;;;;;;;3.75;1.60;;;;;;;17.83;60.98;99178.13;5025467;28;20411;-75
2022/07/07 05:56:54;;;;;;;6.57;1.35;;;;;;;17.97;61.31;99184.16;5025994;28;20022;-73
2022/07/07 05:59:19;;;;;;;3.58;1.60;;;;;;;18.21;60.23;99167.66;5026004;28;20062;-81
2022/07/07 07:43:23;;;;;;;2.97;1.20;;;;;;;18.76;57.36;99200.78;5000731;28;20068;-75
2022/07/07 07:45:48;;;;;;;9.05;1.10;;;;;;;18.54;57.72;99202.53;4999222;28;20054;-76
2022/07/07 07:48:13;;;;;;;3.17;0.85;;;;;;;18.36;58.40;99209.03;5008595;28;20029;-72
2022/07/07 07:50:39;;;;;;;5.30;1.30;;;;;;;18.40;59.31;99210.22;4987572;28;20031;-63
2022/07/07 07:53:05;;;;;;;2.75;1.02;;;;;;;18.26;59.43;99198.75;4988720;28;20042;-72
2022/07/07 07:55:31;;;;;;;2.03;1.08;;;;;;;18.39;59.31;99187.50;4984885;28;20529;-71
2022/07/07 07:57:56;;;;;;;5.57;0.98;;;;;;;18.33;59.62;99182.16;4980769;28;20027;-76
2022/07/07 08:00:22;;;;;;;3.45;1.10;;;;;;;18.41;60.06;99200.91;4989911;28;20625;-78
2022/07/07 08:02:48;;;;;;;3.30;1.00;;;;;;;18.44;59.80;99200.44;4981227;28;20541;-72
2022/07/07 08:05:15;;;;;;;2.78;0.90;;;;;;;18.54;59.44;99172.41;4993391;28;20021;-73
2022/07/07 08:07:41;;;;;;;5.53;1.10;;;;;;;18.61;59.63;99184.88;4993914;28;20045;-73
2022/07/07 08:10:09;;;;;;;5.05;1.10;;;;;;;18.52;60.33;99189.09;4985362;28;20030;-72
2022/07/07 08:12:35;;;;;;;3.60;1.02;;;;;;;18.61;59.88;99179.38;4988166;28;20037;-71
2022/07/07 08:15:01;;;;;;;2.38;1.10;;;;;;;18.76;60.40;99184.34;4989897;28;20037;-70
2022/07/07 08:17:26;;;;;;;2.97;1.17;;;;;;;18.88;60.40;99169.72;5004649;28;20026;-71
2022/07/07 08:19:52;;;;;;;3.53;1.10;;;;;;;19.34;58.44;99187.75;4987456;28;20026;-75
2022/07/07 08:22:17;;;;;;;3.60;1.08;;;;;;;19.37;57.51;99191.91;4997766;28;20058;-70
2022/07/07 08:24:43;;;;;;;0.88;0.85;;;;;;;19.47;57.95;99194.81;4993123;28;20030;-69
2022/07/07 08:27:08;;;;;;;3.95;1.05;;;;;;;19.38;57.82;99171.59;4989844;28;20038;-68
2022/07/07 08:29:38;;;;;;;2.58;0.90;;;;;;;18.85;59.70;99170.22;4992061;28;20019;-67
2022/07/07 08:32:07;;;;;;;3.95;0.98;;;;;;;19.21;58.45;99160.66;4984107;28;20116;-70
2022/07/07 08:34:34;;;;;;;4.00;1.35;;;;;;;19.66;56.96;99157.78;4988058;28;20038;-68
2022/07/07 08:37:00;;;;;;;6.40;1.40;;;;;;;19.41;57.10;99105.25;4991689;28;20072;-67
2022/07/07 08:39:25;;;;;;;5.30;1.80;;;;;;;20.05;56.51;99162.38;4982898;28;20476;-68
2022/07/07 08:41:51;;;;;;;7.93;1.13;;;;;;;20.38;56.18;99177.03;4979298;28;20026;-69
2022/07/07 08:44:18;;;;;;;2.90;1.00;;;;;;;21.01;54.48;99167.19;4986811;28;20089;-68
2022/07/07 08:46:43;;;;;;;4.32;1.67;;;;;;;21.07;54.58;99166.16;4983422;28;20038;-69
2022/07/07 08:49:09;;;;;;;5.38;1.60;;;;;;;21.48;53.80;99157.38;4989270;28;20663;-69
2022/07/07 08:51:40;;;;;;;3.80;2.22;;;;;;;20.84;55.66;99163.78;4987069;28;20026;-69
2022/07/07 08:54:05;;;;;;;5.82;2.13;;;;;;;21.12;55.87;99159.88;4979378;28;20031;-69
2022/07/07 08:56:32;;;;;;;5.05;2.13;;;;;;;20.74;56.57;99161.75;4979454;28;20085;-68
2022/07/07 08:58:58;;;;;;;5.03;2.05;;;;;;;20.52;58.43;99178.28;4980074;28;20030;-68
2022/07/07 09:01:23;;;;;;;3.67;1.83;;;;;;;20.36;59.18;99153.41;4979027;28;20073;-68
2022/07/07 09:03:48;;;;;;;3.47;1.83;;;;;;;20.38;59.84;99185.28;4982047;28;20392;-68
2022/07/07 09:06:14;;;;;;;5.78;1.48;;;;;;;20.20;62.02;99184.53;4982908;28;20029;-68
2022/07/07 09:08:40;;;;;;;3.85;1.60;;;;;;;19.95;62.39;99184.22;4984412;28;20030;-67
2022/07/07 09:11:09;;;;;;;6.03;1.50;;;;;;;19.89;64.36;99189.66;4994047;28;20037;-68
2022/07/07 09:13:35;;;;;;;3.30;1.25;;;;;;;20.08;64.25;99181.09;4983388;28;20112;-68
2022/07/07 09:16:04;;;;;;;3.28;1.05;;;;;;;20.24;65.21;99190.34;4982665;28;20381;-68
2022/07/07 09:18:38;;;;;;;1.92;1.20;;;;;;;20.25;66.54;99187.34;4979691;28;20022;-69
2022/07/07 09:21:06;;;;;;;3.80;1.40;;;;;;;19.93;70.92;99178.97;4980056;28;20030;-68
2022/07/07 09:23:33;;;;;;;2.97;1.35;;;;;;;19.64;72.41;99187.34;4985385;28;20050;-68
2022/07/07 09:26:00;;;;;;;2.00;1.25;;;;;;;19.52;75.46;99197.63;4983862;28;20435;-68
2022/07/07 09:28:26;;;;;;;4.65;1.40;;;;;;;19.32;77.04;99198.13;4989653;28;20038;-69
2022/07/07 09:30:53;;;;;;;2.63;1.50;;;;;;;19.31;77.51;99192.88;4978788;28;20089;-68
2022/07/07 09:33:26;;;;;;;3.47;1.20;;;;;;;19.17;80.24;99197.91;4987996;28;20376;-68
2022/07/07 09:38:40;;;;;;;3.15;1.40;;;;;;;19.03;77.57;99197.41;4976502;28;20045;-68
2022/07/07 09:41:10;;;;;;;5.35;1.58;;;;;;;19.05;80.06;99195.25;4986169;28;20442;-68
2022/07/07 09:43:35;;;;;;;2.95;1.58;;;;;;;19.01;86.12;99194.06;4986829;28;20030;-70
2022/07/07 09:46:16;;;;;;;2.97;1.50;;;;;;;19.01;82.98;99194.91;4990319;28;20030;-68
2022/07/07 09:49:02;;;;;;;4.38;1.38;;;;;;;18.67;85.03;99188.53;4980309;28;20282;-68
2022/07/07 09:51:34;;;;;;;4.18;1.70;;;;;;;18.97;82.57;99182.78;4989665;28;20526;-68
2022/07/07 09:54:10;;;;;;;4.03;1.38;;;;;;;19.36;77.62;99180.09;4989088;28;20026;-68
2022/07/07 09:56:38;;;;;;;3.97;1.40;;;;;;;19.38;75.57;99183.41;4992571;28;20041;-68
2022/07/07 09:59:09;;;;;;;3.05;1.48;;;;;;;19.76;74.36;99195.53;4980755;28;20085;-68
2022/07/07 10:01:39;;;;;;;2.13;1.27;;;;;;;19.84;72.72;99184.09;4992435;28;20399;-68
2022/07/07 10:04:07;;;;;;;4.10;1.40;;;;;;;19.70;71.43;99204.75;4991556;28;20117;-68
2022/07/07 10:06:35;;;;;;;1.98;1.30;;;;;;;20.09;68.62;99200.03;4988420;28;20057;-69
2022/07/07 10:09:15;;;;;;;2.75;1.50;;;;;;;20.21;69.25;99210.91;4990006;28;20034;-69
2022/07/07 10:11:46;;;;;;;10.75;1.75;;;;;;;20.33;66.74;99206.13;4997534;28;20372;-68
2022/07/07 10:14:17;;;;;;;1.25;1.10;;;;;;;20.64;65.09;99200.16;4989604;28;20538;-69
2022/07/07 10:16:46;;;;;;;4.50;1.17;;;;;;;20.93;64.47;99209.78;4990519;28;20033;-68
2022/07/07 10:19:15;;;;;;;4.38;1.15;;;;;;;20.59;65.07;99214.66;4983563;28;20081;-69
2022/07/07 10:21:41;;;;;;;1.42;0.93;;;;;;;20.87;63.80;99194.31;4992297;28;20033;-68
2022/07/07 10:24:08;;;;;;;3.63;1.27;;;;;;;20.98;63.11;99211.75;4991897;28;20113;-69
2022/07/07 10:26:41;;;;;;;3.03;1.20;;;;;;;20.96;62.31;99216.69;4987029;28;20105;-69
2022/07/07 10:29:08;;;;;;;2.58;1.40;;;;;;;20.82;63.05;99213.53;4980130;28;20022;-68
2022/07/07 10:31:35;;;;;;;3.85;1.20;;;;;;;20.84;63.00;99185.78;4983770;28;20090;-69
2022/07/07 10:34:03;;;;;;;5.65;1.40;;;;;;;21.08;62.07;99213.75;4994064;28;20022;-68
2022/07/07 10:36:50;;;;;;;4.65;1.50;;;;;;;20.98;62.84;99218.06;4995264;28;20477;-68
2022/07/07 10:39:21;;;;;;;2.30;1.33;;;;;;;21.21;61.58;99205.06;4990890;28;20065;-68
2022/07/07 10:42:02;;;;;;;2.60;1.25;;;;;;;20.98;62.92;99222.75;4991738;28;20037;-69
2022/07/07 10:44:28;;;;;;;1.50;0.98;;;;;;;21.08;64.06;99208.25;4985343;28;20027;-68
2022/07/07 10:47:17;;;;;;;5.90;1.23;;;;;;;21.66;61.54;99206.50;4976350;28;20382;-69
2022/07/07 10:49:54;;;;;;;2.42;1.58;;;;;;;21.52;61.35;99217.16;4987340;28;20030;-70
2022/07/07 10:52:28;;;;;;;3.03;1.30;;;;;;;21.38;61.48;99213.22;4990241;28;20022;-69
2022/07/07 10:54:59;;;;;;;3.28;1.30;;;;;;;20.88;63.36;99196.00;4997003;28;20054;-73
2022/07/07 10:57:27;;;;;;;2.60;1.40;;;;;;;21.15;63.61;99217.94;4989606;28;20114;-66
2022/07/07 10:59:59;;;;;;;2.83;1.60;;;;;;;20.84;65.67;99235.28;4994617;28;20041;-66
2022/07/07 11:02:32;;;;;;;8.80;1.20;;;;;;;20.18;68.89;99199.63;4982476;28;20048;-66
2022/07/07 11:04:58;;;;;;;6.90;1.30;;;;;;;20.09;69.72;99196.47;4994602;28;20026;-71
2022/07/07 11:07:25;;;;;;;6.13;1.40;;;;;;;20.21;69.33;99205.44;4984835;28;20039;-72
2022/07/07 11:10:05;;;;;;;4.18;1.38;;;;;;;20.23;69.68;99214.25;4984569;28;20019;-73
2022/07/07 11:12:34;;;;;;;3.40;1.42;;;;;;;20.42;69.72;99225.72;4981908;28;20026;-70
2022/07/07 11:15:17;;;;;;;4.72;1.48;;;;;;;20.50;70.82;99222.50;4992517;28;20022;-72
2022/07/07 11:17:47;;;;;;;5.13;1.60;;;;;;;20.58;69.11;99213.00;4987746;28;20037;-75
2022/07/07 11:20:20;;;;;;;;;;;;;;;19.99;72.49;99201.84;4982244;28;20165;-75
2022/07/07 11:22:48;;;;;;;6.35;1.40;;;;;;;19.70;74.18;99202.00;4980507;28;19913;-75
2022/07/07 11:25:15;;;;;;;2.90;1.50;;;;;;;19.70;75.47;99212.97;4988968;28;20026;-70
2022/07/07 11:27:41;;;;;;;2.22;1.25;;;;;;;20.02;73.51;99207.66;4989115;28;20030;-73
2022/07/07 11:30:07;;;;;;;2.88;1.48;;;;;;;20.06;73.03;99218.97;4986141;28;20027;-76
2022/07/07 11:32:43;;;;;;;3.55;1.70;;;;;;;20.19;70.18;99204.84;4988051;28;20042;-74
2022/07/07 11:35:13;;;;;;;5.05;1.58;;;;;;;20.54;68.04;99206.34;4984178;28;20026;-73
2022/07/07 11:37:41;;;;;;;3.70;1.55;;;;;;;21.05;66.43;99206.84;4982372;28;20034;-71
2022/07/07 11:40:12;;;;;;;2.50;1.58;;;;;;;20.83;67.39;99217.09;4982459;28;20026;-72
2022/07/07 11:42:39;;;;;;;4.60;1.70;;;;;;;21.18;64.26;99211.91;4989470;28;20503;-71
2022/07/07 11:45:17;;;;;;;6.05;1.52;;;;;;;21.52;61.57;99222.66;4989870;28;20688;-71
2022/07/07 11:47:43;;;;;;;1.88;1.10;;;;;;;22.24;60.00;99209.28;4993480;28;20360;-71
2022/07/07 11:50:11;;;;;;;3.92;1.20;;;;;;;22.36;59.06;99179.56;4990972;28;20022;-73
2022/07/07 11:52:37;;;;;;;5.55;1.33;;;;;;;21.91;59.95;99218.78;4990215;28;20472;-72
2022/07/07 11:55:04;;;;;;;5.53;1.50;;;;;;;22.05;58.97;99193.19;4986176;28;20077;-72
2022/07/07 11:57:34;;;;;;;4.78;1.70;;;;;;;22.00;59.68;99209.72;4988230;28;20068;-70
2022/07/07 12:00:20;;;;;;;4.20;1.63;;;;;;;21.49;62.36;99214.94;4992985;28;20025;-72
2022/07/07 12:02:48;;;;;;;4.75;1.50;;;;;;;21.10;63.32;99217.91;4986982;28;20038;-72
2022/07/07 12:05:28;;;;;;;5.25;1.88;;;;;;;20.95;63.74;99215.00;4989397;28;20101;-72
2022/07/07 12:07:59;;;;;;;8.10;1.63;;;;;;;20.72;65.73;99219.78;4991397;28;20026;-71
2022/07/07 12:10:31;;;;;;;2.67;1.30;;;;;;;20.48;67.98;99219.19;4987303;28;20044;-72
2022/07/07 12:13:01;;;;;;;3.20;1.48;;;;;;;20.83;66.52;99223.44;4996120;28;20030;-68
2022/07/07 12:15:34;;;;;;;4.13;1.38;;;;;;;20.99;65.49;99222.50;4990103;28;20038;-68
2022/07/07 12:18:00;;;;;;;4.35;1.33;;;;;;;20.86;68.20;99209.16;4990325;28;20056;-67
2022/07/07 12:20:26;;;;;;;2.78;1.70;;;;;;;20.66;69.05;99208.97;4985451;28;20118;-72
2022/07/07 12:22:57;;;;;;;2.95;1.60;;;;;;;20.79;67.94;99236.88;4980691;28;20451;-72
2022/07/07 12:25:27;;;;;;;2.28;1.65;;;;;;;20.94;78.96;99233.44;4993961;28;20037;-72
2022/07/07 12:28:01;;;;;;;2.90;1.83;;;;;;;20.82;85.51;99237.44;4983568;28;20490;-70
2022/07/07 12:30:32;;;;;;;4.95;1.70;;;;;;;20.58;83.90;99229.50;4994285;28;20081;-70
2022/07/07 12:32:59;;;;;;;6.07;1.60;;;;;;;20.75;84.48;99216.50;4990300;28;20429;-71
2022/07/07 12:35:38;;;;;;;2.78;1.48;;;;;;;21.94;74.02;99196.19;4990228;28;20085;-67
2022/07/07 12:38:06;;;;;;;5.72;1.48;;;;;;;22.77;68.68;99210.00;4989155;28;20023;-77
2022/07/07 12:40:33;;;;;;;4.63;1.55;;;;;;;23.50;65.62;99214.44;4991409;28;20029;-69
2022/07/07 12:43:12;;;;;;;2.88;1.60;;;;;;;23.94;62.49;99205.53;4988916;28;20029;-72
2022/07/07 12:45:42;;;;;;;2.75;1.40;;;;;;;24.00;57.88;99198.88;4983548;28;20114;-72
2022/07/07 12:48:17;;;;;;;3.40;1.50;;;;;;;23.04;57.90;99208.94;4991780;28;20030;-71
2022/07/07 12:50:43;;;;;;;4.47;1.52;;;;;;;22.47;59.60;99202.47;4990852;28;20118;-71
2022/07/07 12:53:08;;;;;;;4.93;1.85;;;;;;;21.28;64.45;99210.34;4984624;28;20030;-72
2022/07/07 12:55:36;;;;;;;2.97;1.40;;;;;;;21.19;67.85;99213.56;4979398;28;20033;-71
2022/07/07 12:58:13;;;;;;;4.40;1.80;;;;;;;20.72;70.93;99210.66;4986937;28;20034;-72
2022/07/07 13:00:40;;;;;;;3.25;1.70;;;;;;;19.84;78.87;99199.75;4988925;28;20046;-71
2022/07/07 13:03:07;;;;;;;4.00;1.80;;;;;;;19.96;80.05;99222.41;4990712;28;20034;-71
2022/07/07 13:05:33;;;;;;;6.47;2.00;;;;;;;19.91;82.88;99214.09;4992266;28;20034;-71
2022/07/07 13:07:58;;;;;;;10.30;1.77;;;;;;;19.72;85.12;99224.56;4995597;28;20109;-72
2022/07/07 13:10:25;;;;;;;3.08;1.70;;;;;;;19.61;88.31;99211.75;4986169;28;20466;-72
2022/07/07 13:12:54;;;;;;;4.68;1.90;;;;;;;19.57;92.40;99230.63;4984645;28;20049;-72
2022/07/07 13:15:19;;;;;;;3.25;1.70;;;;;;;19.34;100.00;99258.25;4983218;28;20096;-71